sensor_id;sensor_type;location;lat;lon;timestamp;P1;durP1;ratioP1;P2;durP2;ratioP2
26598;SDS011;14240;51.064;16.612;2024-01-16T00:00:07;20.33;;;7.63;;
26598;SDS011;14240;51.064;16.612;2024-01-16T00:02:34;14.80;;;6.28;;
26598;SDS011;14240;51.064;16.612;2024-01-16T00:04:59;14.20;;;6.30;;
26598;SDS011;14240;51.064;16.612;2024-01-16T00:07:25;14.05;;;5.82;;
26598;SDS011;14240;51.064;16.612;2024-01-16T00:09:51;14.90;;;5.97;;
26598;SDS011;14240;51.064;16.612;2024-01-16T00:12:18;9.90;;;5.35;;
26598;SDS011;14240;51.064;16.612;2024-01-16T00:14:44;11.05;;;5.28;;
26598;SDS011;14240;51.064;16.612;2024-01-16T00:17:10;8.75;;;5.07;;
26598;SDS011;14240;51.064;16.612;2024-01-16T00:19:36;9.48;;;4.55;;
26598;SDS011;14240;51.064;16.612;2024-01-16T00:22:02;5.90;;;3.17;;
26598;SDS011;14240;51.064;16.612;2024-01-16T00:24:29;6.78;;;3.40;;
26598;SDS011;14240;51.064;16.612;2024-01-16T00:26:55;8.75;;;4.15;;
26598;SDS011;14240;51.064;16.612;2024-01-16T00:29:21;7.30;;;3.95;;
26598;SDS011;14240;51.064;16.612;2024-01-16T00:31:47;4.95;;;2.97;;
26598;SDS011;14240;51.064;16.612;2024-01-16T00:34:13;5.97;;;3.17;;
26598;SDS011;14240;51.064;16.612;2024-01-16T00:36:38;6.05;;;2.63;;
26598;SDS011;14240;51.064;16.612;2024-01-16T00:39:04;5.00;;;2.53;;
26598;SDS011;14240;51.064;16.612;2024-01-16T00:41:30;7.72;;;3.33;;
26598;SDS011;14240;51.064;16.612;2024-01-16T00:43:55;8.40;;;4.38;;
26598;SDS011;14240;51.064;16.612;2024-01-16T00:46:21;11.10;;;3.90;;
26598;SDS011;14240;51.064;16.612;2024-01-16T00:48:47;6.68;;;3.05;;
26598;SDS011;14240;51.064;16.612;2024-01-16T00:51:13;8.43;;;3.72;;
26598;SDS011;14240;51.064;16.612;2024-01-16T00:53:42;6.20;;;3.53;;
26598;SDS011;14240;51.064;16.612;2024-01-16T00:56:08;6.60;;;2.75;;
26598;SDS011;14240;51.064;16.612;2024-01-16T00:58:34;5.82;;;3.35;;
26598;SDS011;14240;51.064;16.612;2024-01-16T01:01:00;7.72;;;3.28;;
26598;SDS011;14240;51.064;16.612;2024-01-16T01:03:26;4.20;;;2.72;;
26598;SDS011;14240;51.064;16.612;2024-01-16T01:05:52;9.75;;;3.45;;
26598;SDS011;14240;51.064;16.612;2024-01-16T01:08:18;6.97;;;2.97;;
26598;SDS011;14240;51.064;16.612;2024-01-16T01:10:43;9.10;;;3.90;;
26598;SDS011;14240;51.064;16.612;2024-01-16T01:13:09;12.18;;;3.65;;
26598;SDS011;14240;51.064;16.612;2024-01-16T01:15:35;16.75;;;5.22;;
26598;SDS011;14240;51.064;16.612;2024-01-16T01:18:00;11.13;;;5.03;;
26598;SDS011;14240;51.064;16.612;2024-01-16T01:20:26;7.35;;;3.20;;
26598;SDS011;14240;51.064;16.612;2024-01-16T01:22:52;6.75;;;3.00;;
26598;SDS011;14240;51.064;16.612;2024-01-16T01:25:17;7.97;;;3.13;;
26598;SDS011;14240;51.064;16.612;2024-01-16T01:27:43;11.95;;;3.17;;
26598;SDS011;14240;51.064;16.612;2024-01-16T01:30:09;12.70;;;3.95;;
26598;SDS011;14240;51.064;16.612;2024-01-16T01:32:36;14.23;;;4.78;;
26598;SDS011;14240;51.064;16.612;2024-01-16T01:35:02;12.57;;;3.70;;
26598;SDS011;14240;51.064;16.612;2024-01-16T01:37:28;13.75;;;4.10;;
26598;SDS011;14240;51.064;16.612;2024-01-16T01:39:53;8.57;;;4.10;;
26598;SDS011;14240;51.064;16.612;2024-01-16T01:42:19;9.98;;;3.83;;
26598;SDS011;14240;51.064;16.612;2024-01-16T01:44:45;10.55;;;4.00;;
26598;SDS011;14240;51.064;16.612;2024-01-16T01:47:10;7.18;;;2.65;;
26598;SDS011;14240;51.064;16.612;2024-01-16T01:49:36;3.85;;;2.42;;
26598;SDS011;14240;51.064;16.612;2024-01-16T01:52:03;8.00;;;3.50;;
26598;SDS011;14240;51.064;16.612;2024-01-16T01:54:31;6.63;;;3.13;;
26598;SDS011;14240;51.064;16.612;2024-01-16T01:57:00;5.45;;;2.50;;
26598;SDS011;14240;51.064;16.612;2024-01-16T01:59:27;6.68;;;2.50;;
26598;SDS011;14240;51.064;16.612;2024-01-16T02:01:54;7.93;;;3.33;;
26598;SDS011;14240;51.064;16.612;2024-01-16T02:04:21;9.85;;;3.70;;
26598;SDS011;14240;51.064;16.612;2024-01-16T02:06:48;12.63;;;5.28;;
26598;SDS011;14240;51.064;16.612;2024-01-16T02:09:14;6.35;;;3.30;;
26598;SDS011;14240;51.064;16.612;2024-01-16T02:11:40;14.02;;;4.60;;
26598;SDS011;14240;51.064;16.612;2024-01-16T02:14:06;11.20;;;3.50;;
26598;SDS011;14240;51.064;16.612;2024-01-16T02:16:39;10.15;;;3.13;;
26598;SDS011;14240;51.064;16.612;2024-01-16T02:19:06;10.63;;;3.50;;
26598;SDS011;14240;51.064;16.612;2024-01-16T02:21:35;8.90;;;3.38;;
26598;SDS011;14240;51.064;16.612;2024-01-16T02:24:05;7.60;;;3.75;;
26598;SDS011;14240;51.064;16.612;2024-01-16T02:28:57;9.52;;;4.28;;
26598;SDS011;14240;51.064;16.612;2024-01-16T02:33:50;10.85;;;3.22;;
26598;SDS011;14240;51.064;16.612;2024-01-16T02:36:16;11.05;;;3.97;;
26598;SDS011;14240;51.064;16.612;2024-01-16T02:38:42;12.45;;;4.80;;
26598;SDS011;14240;51.064;16.612;2024-01-16T02:41:07;12.95;;;4.03;;
26598;SDS011;14240;51.064;16.612;2024-01-16T02:43:33;13.05;;;4.65;;
26598;SDS011;14240;51.064;16.612;2024-01-16T02:45:59;14.68;;;4.18;;
26598;SDS011;14240;51.064;16.612;2024-01-16T02:48:24;12.13;;;4.10;;
26598;SDS011;14240;51.064;16.612;2024-01-16T02:50:50;12.27;;;4.35;;
26598;SDS011;14240;51.064;16.612;2024-01-16T02:53:16;13.05;;;4.65;;
26598;SDS011;14240;51.064;16.612;2024-01-16T02:55:41;5.85;;;3.20;;
26598;SDS011;14240;51.064;16.612;2024-01-16T02:58:07;8.63;;;3.75;;
26598;SDS011;14240;51.064;16.612;2024-01-16T03:00:33;8.40;;;3.75;;
26598;SDS011;14240;51.064;16.612;2024-01-16T03:02:58;9.73;;;3.25;;
26598;SDS011;14240;51.064;16.612;2024-01-16T03:05:24;10.68;;;3.40;;
26598;SDS011;14240;51.064;16.612;2024-01-16T03:07:50;10.13;;;3.15;;
26598;SDS011;14240;51.064;16.612;2024-01-16T03:10:16;9.45;;;3.55;;
26598;SDS011;14240;51.064;16.612;2024-01-16T03:12:41;7.63;;;3.67;;
26598;SDS011;14240;51.064;16.612;2024-01-16T03:15:07;8.90;;;3.25;;
26598;SDS011;14240;51.064;16.612;2024-01-16T03:17:33;12.05;;;3.72;;
26598;SDS011;14240;51.064;16.612;2024-01-16T03:19:59;8.50;;;2.78;;
26598;SDS011;14240;51.064;16.612;2024-01-16T03:22:24;9.00;;;3.53;;
26598;SDS011;14240;51.064;16.612;2024-01-16T03:24:50;12.75;;;4.53;;
26598;SDS011;14240;51.064;16.612;2024-01-16T03:27:16;15.98;;;5.40;;
26598;SDS011;14240;51.064;16.612;2024-01-16T03:29:41;9.10;;;3.45;;
26598;SDS011;14240;51.064;16.612;2024-01-16T03:32:07;6.65;;;4.18;;
26598;SDS011;14240;51.064;16.612;2024-01-16T03:34:33;4.68;;;2.67;;
26598;SDS011;14240;51.064;16.612;2024-01-16T03:36:59;14.65;;;3.53;;
26598;SDS011;14240;51.064;16.612;2024-01-16T03:39:24;8.55;;;3.47;;
26598;SDS011;14240;51.064;16.612;2024-01-16T03:41:50;11.98;;;4.53;;
26598;SDS011;14240;51.064;16.612;2024-01-16T03:44:15;7.60;;;3.70;;
26598;SDS011;14240;51.064;16.612;2024-01-16T03:46:41;6.97;;;3.33;;
26598;SDS011;14240;51.064;16.612;2024-01-16T03:49:07;9.52;;;2.45;;
26598;SDS011;14240;51.064;16.612;2024-01-16T03:51:32;9.32;;;2.70;;
26598;SDS011;14240;51.064;16.612;2024-01-16T03:53:58;11.18;;;4.05;;
26598;SDS011;14240;51.064;16.612;2024-01-16T03:56:24;6.30;;;3.25;;
26598;SDS011;14240;51.064;16.612;2024-01-16T03:58:49;6.95;;;3.75;;
26598;SDS011;14240;51.064;16.612;2024-01-16T04:01:15;7.53;;;3.55;;
26598;SDS011;14240;51.064;16.612;2024-01-16T04:03:41;6.05;;;3.03;;
26598;SDS011;14240;51.064;16.612;2024-01-16T04:06:16;6.18;;;3.22;;
26598;SDS011;14240;51.064;16.612;2024-01-16T04:08:43;4.43;;;2.75;;
26598;SDS011;14240;51.064;16.612;2024-01-16T04:11:14;8.00;;;3.80;;
26598;SDS011;14240;51.064;16.612;2024-01-16T04:13:40;7.88;;;3.80;;
26598;SDS011;14240;51.064;16.612;2024-01-16T04:16:06;11.30;;;4.53;;
26598;SDS011;14240;51.064;16.612;2024-01-16T04:18:35;12.27;;;4.95;;
26598;SDS011;14240;51.064;16.612;2024-01-16T04:21:02;9.18;;;3.88;;
26598;SDS011;14240;51.064;16.612;2024-01-16T04:23:28;10.10;;;4.85;;
26598;SDS011;14240;51.064;16.612;2024-01-16T04:25:54;7.95;;;4.38;;
26598;SDS011;14240;51.064;16.612;2024-01-16T04:28:19;5.25;;;3.30;;
26598;SDS011;14240;51.064;16.612;2024-01-16T04:30:45;6.40;;;3.40;;
26598;SDS011;14240;51.064;16.612;2024-01-16T04:33:11;10.43;;;4.97;;
26598;SDS011;14240;51.064;16.612;2024-01-16T04:35:36;9.93;;;4.22;;
26598;SDS011;14240;51.064;16.612;2024-01-16T04:38:02;10.93;;;3.70;;
26598;SDS011;14240;51.064;16.612;2024-01-16T04:40:28;10.98;;;3.47;;
26598;SDS011;14240;51.064;16.612;2024-01-16T04:42:54;6.07;;;3.20;;
26598;SDS011;14240;51.064;16.612;2024-01-16T04:45:19;6.50;;;3.25;;
26598;SDS011;14240;51.064;16.612;2024-01-16T04:47:45;9.05;;;2.35;;
26598;SDS011;14240;51.064;16.612;2024-01-16T04:50:10;4.97;;;2.90;;
26598;SDS011;14240;51.064;16.612;2024-01-16T04:52:36;6.00;;;2.80;;
26598;SDS011;14240;51.064;16.612;2024-01-16T04:55:02;7.30;;;3.40;;
26598;SDS011;14240;51.064;16.612;2024-01-16T04:57:29;8.45;;;3.50;;
26598;SDS011;14240;51.064;16.612;2024-01-16T04:59:54;8.23;;;3.47;;
26598;SDS011;14240;51.064;16.612;2024-01-16T05:02:20;8.27;;;4.00;;
26598;SDS011;14240;51.064;16.612;2024-01-16T05:04:46;10.48;;;3.40;;
26598;SDS011;14240;51.064;16.612;2024-01-16T05:07:14;8.27;;;3.30;;
26598;SDS011;14240;51.064;16.612;2024-01-16T05:09:40;9.93;;;3.72;;
26598;SDS011;14240;51.064;16.612;2024-01-16T05:12:06;8.35;;;3.30;;
26598;SDS011;14240;51.064;16.612;2024-01-16T05:14:32;9.65;;;4.25;;
26598;SDS011;14240;51.064;16.612;2024-01-16T05:16:57;8.27;;;3.50;;
26598;SDS011;14240;51.064;16.612;2024-01-16T05:19:23;7.53;;;3.38;;
26598;SDS011;14240;51.064;16.612;2024-01-16T05:21:49;5.80;;;3.63;;
26598;SDS011;14240;51.064;16.612;2024-01-16T05:24:14;7.50;;;3.95;;
26598;SDS011;14240;51.064;16.612;2024-01-16T05:26:40;7.03;;;3.85;;
26598;SDS011;14240;51.064;16.612;2024-01-16T05:29:06;7.53;;;4.10;;
26598;SDS011;14240;51.064;16.612;2024-01-16T05:31:31;9.10;;;3.92;;
26598;SDS011;14240;51.064;16.612;2024-01-16T05:33:57;9.85;;;3.30;;
26598;SDS011;14240;51.064;16.612;2024-01-16T05:36:23;10.52;;;3.85;;
26598;SDS011;14240;51.064;16.612;2024-01-16T05:38:49;8.98;;;3.97;;
26598;SDS011;14240;51.064;16.612;2024-01-16T05:41:15;8.85;;;3.50;;
26598;SDS011;14240;51.064;16.612;2024-01-16T05:43:41;13.50;;;4.53;;
26598;SDS011;14240;51.064;16.612;2024-01-16T05:46:06;8.85;;;3.72;;
26598;SDS011;14240;51.064;16.612;2024-01-16T05:48:32;9.68;;;3.72;;
26598;SDS011;14240;51.064;16.612;2024-01-16T05:50:58;7.57;;;4.68;;
26598;SDS011;14240;51.064;16.612;2024-01-16T05:53:23;8.52;;;3.60;;
26598;SDS011;14240;51.064;16.612;2024-01-16T05:55:49;5.57;;;3.55;;
26598;SDS011;14240;51.064;16.612;2024-01-16T05:58:15;10.13;;;4.00;;
26598;SDS011;14240;51.064;16.612;2024-01-16T06:00:40;11.30;;;3.72;;
26598;SDS011;14240;51.064;16.612;2024-01-16T06:03:06;9.63;;;3.90;;
26598;SDS011;14240;51.064;16.612;2024-01-16T06:05:32;7.82;;;3.38;;
26598;SDS011;14240;51.064;16.612;2024-01-16T06:07:57;8.50;;;4.50;;
26598;SDS011;14240;51.064;16.612;2024-01-16T06:10:23;10.52;;;4.85;;
26598;SDS011;14240;51.064;16.612;2024-01-16T06:12:48;10.00;;;5.35;;
26598;SDS011;14240;51.064;16.612;2024-01-16T06:15:14;5.10;;;3.83;;
26598;SDS011;14240;51.064;16.612;2024-01-16T06:17:40;7.82;;;4.82;;
26598;SDS011;14240;51.064;16.612;2024-01-16T06:20:06;7.00;;;3.95;;
26598;SDS011;14240;51.064;16.612;2024-01-16T06:22:32;13.18;;;5.13;;
26598;SDS011;14240;51.064;16.612;2024-01-16T06:24:57;6.20;;;3.45;;
26598;SDS011;14240;51.064;16.612;2024-01-16T06:27:23;15.48;;;5.95;;
26598;SDS011;14240;51.064;16.612;2024-01-16T06:29:49;10.48;;;4.00;;
26598;SDS011;14240;51.064;16.612;2024-01-16T06:32:16;6.50;;;2.63;;
26598;SDS011;14240;51.064;16.612;2024-01-16T06:34:41;3.75;;;2.42;;
26598;SDS011;14240;51.064;16.612;2024-01-16T06:37:07;2.63;;;1.50;;
26598;SDS011;14240;51.064;16.612;2024-01-16T06:39:33;8.52;;;2.70;;
26598;SDS011;14240;51.064;16.612;2024-01-16T06:41:59;10.57;;;4.32;;
26598;SDS011;14240;51.064;16.612;2024-01-16T06:44:25;7.15;;;2.38;;
26598;SDS011;14240;51.064;16.612;2024-01-16T06:46:51;28.08;;;5.97;;
26598;SDS011;14240;51.064;16.612;2024-01-16T06:49:16;7.85;;;2.75;;
26598;SDS011;14240;51.064;16.612;2024-01-16T06:51:42;7.95;;;2.97;;
26598;SDS011;14240;51.064;16.612;2024-01-16T06:54:08;3.72;;;1.52;;
26598;SDS011;14240;51.064;16.612;2024-01-16T06:56:33;2.20;;;1.35;;
26598;SDS011;14240;51.064;16.612;2024-01-16T06:58:59;2.60;;;1.75;;
26598;SDS011;14240;51.064;16.612;2024-01-16T07:01:25;4.38;;;1.88;;
26598;SDS011;14240;51.064;16.612;2024-01-16T07:03:51;3.75;;;1.80;;
26598;SDS011;14240;51.064;16.612;2024-01-16T07:06:17;1.42;;;1.33;;
26598;SDS011;14240;51.064;16.612;2024-01-16T07:08:43;4.57;;;2.60;;
26598;SDS011;14240;51.064;16.612;2024-01-16T07:11:11;5.40;;;1.98;;
26598;SDS011;14240;51.064;16.612;2024-01-16T07:13:38;8.02;;;3.28;;
26598;SDS011;14240;51.064;16.612;2024-01-16T07:16:04;12.50;;;3.83;;
26598;SDS011;14240;51.064;16.612;2024-01-16T07:18:29;12.02;;;5.28;;
26598;SDS011;14240;51.064;16.612;2024-01-16T07:20:55;16.20;;;6.05;;
26598;SDS011;14240;51.064;16.612;2024-01-16T07:23:21;9.57;;;3.90;;
26598;SDS011;14240;51.064;16.612;2024-01-16T07:25:46;10.65;;;5.50;;
26598;SDS011;14240;51.064;16.612;2024-01-16T07:28:12;11.35;;;6.88;;
26598;SDS011;14240;51.064;16.612;2024-01-16T07:30:39;14.05;;;7.43;;
26598;SDS011;14240;51.064;16.612;2024-01-16T07:33:05;12.85;;;5.97;;
26598;SDS011;14240;51.064;16.612;2024-01-16T07:35:31;9.75;;;5.38;;
26598;SDS011;14240;51.064;16.612;2024-01-16T07:37:56;9.95;;;5.65;;
26598;SDS011;14240;51.064;16.612;2024-01-16T07:40:22;13.27;;;5.88;;
26598;SDS011;14240;51.064;16.612;2024-01-16T07:42:48;14.77;;;6.40;;
26598;SDS011;14240;51.064;16.612;2024-01-16T07:45:14;34.20;;;10.60;;
26598;SDS011;14240;51.064;16.612;2024-01-16T07:47:40;55.13;;;17.02;;
26598;SDS011;14240;51.064;16.612;2024-01-16T07:50:06;59.72;;;15.63;;
26598;SDS011;14240;51.064;16.612;2024-01-16T07:52:32;26.02;;;7.82;;
26598;SDS011;14240;51.064;16.612;2024-01-16T07:54:58;9.55;;;3.50;;
26598;SDS011;14240;51.064;16.612;2024-01-16T07:57:24;11.82;;;4.32;;
26598;SDS011;14240;51.064;16.612;2024-01-16T07:59:49;16.77;;;4.28;;
26598;SDS011;14240;51.064;16.612;2024-01-16T08:02:15;14.32;;;4.93;;
26598;SDS011;14240;51.064;16.612;2024-01-16T08:04:42;17.03;;;5.40;;
26598;SDS011;14240;51.064;16.612;2024-01-16T08:07:07;12.75;;;4.95;;
26598;SDS011;14240;51.064;16.612;2024-01-16T08:09:33;8.35;;;3.55;;
26598;SDS011;14240;51.064;16.612;2024-01-16T08:12:00;10.30;;;3.35;;
26598;SDS011;14240;51.064;16.612;2024-01-16T08:14:27;6.78;;;4.22;;
26598;SDS011;14240;51.064;16.612;2024-01-16T08:16:56;4.90;;;2.38;;
26598;SDS011;14240;51.064;16.612;2024-01-16T08:19:22;4.80;;;2.20;;
26598;SDS011;14240;51.064;16.612;2024-01-16T08:21:48;6.38;;;2.67;;
26598;SDS011;14240;51.064;16.612;2024-01-16T08:24:13;6.10;;;3.15;;
26598;SDS011;14240;51.064;16.612;2024-01-16T08:26:39;9.93;;;3.90;;
26598;SDS011;14240;51.064;16.612;2024-01-16T08:29:04;7.30;;;3.50;;
26598;SDS011;14240;51.064;16.612;2024-01-16T08:31:30;6.18;;;3.10;;
26598;SDS011;14240;51.064;16.612;2024-01-16T08:33:56;10.90;;;4.50;;
26598;SDS011;14240;51.064;16.612;2024-01-16T08:36:22;9.93;;;3.22;;
26598;SDS011;14240;51.064;16.612;2024-01-16T08:38:48;9.05;;;3.80;;
26598;SDS011;14240;51.064;16.612;2024-01-16T08:41:14;9.70;;;3.70;;
26598;SDS011;14240;51.064;16.612;2024-01-16T08:43:41;4.28;;;2.83;;
26598;SDS011;14240;51.064;16.612;2024-01-16T08:46:08;6.47;;;3.65;;
26598;SDS011;14240;51.064;16.612;2024-01-16T08:48:33;10.88;;;6.25;;
26598;SDS011;14240;51.064;16.612;2024-01-16T08:50:59;11.80;;;6.70;;
26598;SDS011;14240;51.064;16.612;2024-01-16T08:53:25;7.60;;;3.83;;
26598;SDS011;14240;51.064;16.612;2024-01-16T08:55:50;5.88;;;2.90;;
26598;SDS011;14240;51.064;16.612;2024-01-16T08:58:16;11.07;;;4.18;;
26598;SDS011;14240;51.064;16.612;2024-01-16T09:00:42;10.38;;;4.63;;
26598;SDS011;14240;51.064;16.612;2024-01-16T09:03:08;15.43;;;7.00;;
26598;SDS011;14240;51.064;16.612;2024-01-16T09:05:33;8.32;;;3.67;;
26598;SDS011;14240;51.064;16.612;2024-01-16T09:08:03;8.18;;;3.70;;
26598;SDS011;14240;51.064;16.612;2024-01-16T09:10:29;6.82;;;2.90;;
26598;SDS011;14240;51.064;16.612;2024-01-16T09:12:55;9.55;;;3.60;;
26598;SDS011;14240;51.064;16.612;2024-01-16T09:15:21;8.73;;;4.55;;
26598;SDS011;14240;51.064;16.612;2024-01-16T09:17:46;6.00;;;3.33;;
26598;SDS011;14240;51.064;16.612;2024-01-16T09:20:12;9.95;;;3.30;;
26598;SDS011;14240;51.064;16.612;2024-01-16T09:22:38;11.85;;;4.35;;
26598;SDS011;14240;51.064;16.612;2024-01-16T09:25:03;10.93;;;4.65;;
26598;SDS011;14240;51.064;16.612;2024-01-16T09:27:30;11.98;;;3.88;;
26598;SDS011;14240;51.064;16.612;2024-01-16T09:29:56;10.43;;;5.10;;
26598;SDS011;14240;51.064;16.612;2024-01-16T09:32:21;12.07;;;7.10;;
26598;SDS011;14240;51.064;16.612;2024-01-16T09:34:47;10.25;;;4.90;;
26598;SDS011;14240;51.064;16.612;2024-01-16T09:37:12;8.93;;;4.65;;
26598;SDS011;14240;51.064;16.612;2024-01-16T09:39:40;13.00;;;5.25;;
26598;SDS011;14240;51.064;16.612;2024-01-16T09:42:06;10.20;;;4.65;;
26598;SDS011;14240;51.064;16.612;2024-01-16T09:44:32;12.52;;;6.00;;
26598;SDS011;14240;51.064;16.612;2024-01-16T09:46:59;15.63;;;5.70;;
26598;SDS011;14240;51.064;16.612;2024-01-16T09:49:27;12.02;;;4.80;;
26598;SDS011;14240;51.064;16.612;2024-01-16T09:51:54;8.57;;;4.72;;
26598;SDS011;14240;51.064;16.612;2024-01-16T09:54:19;12.50;;;5.30;;
26598;SDS011;14240;51.064;16.612;2024-01-16T09:56:45;13.60;;;6.72;;
26598;SDS011;14240;51.064;16.612;2024-01-16T09:59:16;15.18;;;8.07;;
26598;SDS011;14240;51.064;16.612;2024-01-16T10:01:45;12.40;;;5.20;;
26598;SDS011;14240;51.064;16.612;2024-01-16T10:04:11;21.70;;;7.50;;
26598;SDS011;14240;51.064;16.612;2024-01-16T10:06:38;13.77;;;5.15;;
26598;SDS011;14240;51.064;16.612;2024-01-16T10:09:04;17.45;;;8.55;;
26598;SDS011;14240;51.064;16.612;2024-01-16T10:11:31;13.03;;;4.97;;
26598;SDS011;14240;51.064;16.612;2024-01-16T10:13:58;15.20;;;6.65;;
26598;SDS011;14240;51.064;16.612;2024-01-16T10:16:54;15.35;;;5.35;;
26598;SDS011;14240;51.064;16.612;2024-01-16T10:19:52;11.77;;;5.05;;
26598;SDS011;14240;51.064;16.612;2024-01-16T10:22:20;13.75;;;6.28;;
26598;SDS011;14240;51.064;16.612;2024-01-16T10:25:04;31.48;;;12.75;;
26598;SDS011;14240;51.064;16.612;2024-01-16T10:27:34;13.77;;;5.90;;
26598;SDS011;14240;51.064;16.612;2024-01-16T10:30:01;16.10;;;7.00;;
26598;SDS011;14240;51.064;16.612;2024-01-16T10:32:31;14.30;;;6.17;;
26598;SDS011;14240;51.064;16.612;2024-01-16T10:35:08;14.98;;;5.85;;
26598;SDS011;14240;51.064;16.612;2024-01-16T10:40:08;12.80;;;7.28;;
26598;SDS011;14240;51.064;16.612;2024-01-16T10:42:34;17.50;;;8.02;;
26598;SDS011;14240;51.064;16.612;2024-01-16T10:45:00;20.30;;;7.88;;
26598;SDS011;14240;51.064;16.612;2024-01-16T10:49:53;18.45;;;7.50;;
26598;SDS011;14240;51.064;16.612;2024-01-16T10:52:19;12.48;;;7.00;;
26598;SDS011;14240;51.064;16.612;2024-01-16T10:54:52;12.30;;;5.35;;
26598;SDS011;14240;51.064;16.612;2024-01-16T10:57:22;8.93;;;4.18;;
26598;SDS011;14240;51.064;16.612;2024-01-16T11:02:58;8.07;;;3.50;;
26598;SDS011;14240;51.064;16.612;2024-01-16T11:05:25;6.82;;;2.97;;
26598;SDS011;14240;51.064;16.612;2024-01-16T11:07:55;8.13;;;3.20;;
26598;SDS011;14240;51.064;16.612;2024-01-16T11:10:23;10.90;;;4.82;;
26598;SDS011;14240;51.064;16.612;2024-01-16T11:12:49;13.05;;;5.97;;
26598;SDS011;14240;51.064;16.612;2024-01-16T11:15:17;18.65;;;7.30;;
26598;SDS011;14240;51.064;16.612;2024-01-16T11:17:44;17.33;;;6.57;;
26598;SDS011;14240;51.064;16.612;2024-01-16T11:20:12;13.68;;;5.95;;
26598;SDS011;14240;51.064;16.612;2024-01-16T11:22:41;6.85;;;3.78;;
26598;SDS011;14240;51.064;16.612;2024-01-16T11:27:35;7.25;;;4.30;;
26598;SDS011;14240;51.064;16.612;2024-01-16T11:30:03;8.13;;;4.32;;
26598;SDS011;14240;51.064;16.612;2024-01-16T11:32:38;9.30;;;4.22;;
26598;SDS011;14240;51.064;16.612;2024-01-16T11:35:10;8.23;;;3.88;;
26598;SDS011;14240;51.064;16.612;2024-01-16T11:37:41;7.70;;;3.70;;
26598;SDS011;14240;51.064;16.612;2024-01-16T11:42:52;8.93;;;3.80;;
26598;SDS011;14240;51.064;16.612;2024-01-16T11:48:13;4.95;;;3.08;;
26598;SDS011;14240;51.064;16.612;2024-01-16T11:50:40;6.85;;;2.95;;
26598;SDS011;14240;51.064;16.612;2024-01-16T11:53:06;6.97;;;3.50;;
26598;SDS011;14240;51.064;16.612;2024-01-16T11:55:33;7.05;;;3.30;;
26598;SDS011;14240;51.064;16.612;2024-01-16T12:00:36;8.25;;;3.72;;
26598;SDS011;14240;51.064;16.612;2024-01-16T12:03:06;4.63;;;3.22;;
26598;SDS011;14240;51.064;16.612;2024-01-16T12:05:33;6.65;;;3.22;;
26598;SDS011;14240;51.064;16.612;2024-01-16T12:07:59;5.55;;;2.97;;
26598;SDS011;14240;51.064;16.612;2024-01-16T12:10:28;7.00;;;3.67;;
26598;SDS011;14240;51.064;16.612;2024-01-16T12:12:58;6.85;;;3.97;;
26598;SDS011;14240;51.064;16.612;2024-01-16T12:15:24;7.65;;;4.40;;
26598;SDS011;14240;51.064;16.612;2024-01-16T12:17:59;7.38;;;4.15;;
26598;SDS011;14240;51.064;16.612;2024-01-16T12:20:27;8.95;;;4.43;;
26598;SDS011;14240;51.064;16.612;2024-01-16T12:22:55;17.85;;;6.25;;
26598;SDS011;14240;51.064;16.612;2024-01-16T12:25:25;9.60;;;5.22;;
26598;SDS011;14240;51.064;16.612;2024-01-16T12:27:59;9.73;;;4.18;;
26598;SDS011;14240;51.064;16.612;2024-01-16T12:30:26;8.57;;;4.53;;
26598;SDS011;14240;51.064;16.612;2024-01-16T12:33:14;9.88;;;4.65;;
26598;SDS011;14240;51.064;16.612;2024-01-16T12:35:40;12.43;;;5.18;;
26598;SDS011;14240;51.064;16.612;2024-01-16T12:38:07;4.65;;;3.00;;
26598;SDS011;14240;51.064;16.612;2024-01-16T12:40:41;5.45;;;2.92;;
26598;SDS011;14240;51.064;16.612;2024-01-16T12:43:12;3.45;;;2.70;;
26598;SDS011;14240;51.064;16.612;2024-01-16T12:45:38;7.03;;;2.70;;
26598;SDS011;14240;51.064;16.612;2024-01-16T12:48:04;6.38;;;3.30;;
26598;SDS011;14240;51.064;16.612;2024-01-16T12:50:31;5.90;;;2.88;;
26598;SDS011;14240;51.064;16.612;2024-01-16T12:53:15;6.85;;;3.80;;
26598;SDS011;14240;51.064;16.612;2024-01-16T12:55:44;7.00;;;3.10;;
26598;SDS011;14240;51.064;16.612;2024-01-16T13:00:46;12.25;;;5.32;;
26598;SDS011;14240;51.064;16.612;2024-01-16T13:03:16;13.80;;;6.25;;
26598;SDS011;14240;51.064;16.612;2024-01-16T13:05:43;17.27;;;8.73;;
26598;SDS011;14240;51.064;16.612;2024-01-16T13:08:19;15.38;;;7.88;;
26598;SDS011;14240;51.064;16.612;2024-01-16T13:10:46;13.98;;;6.82;;
26598;SDS011;14240;51.064;16.612;2024-01-16T13:13:26;9.95;;;5.95;;
26598;SDS011;14240;51.064;16.612;2024-01-16T13:15:51;13.05;;;5.80;;
26598;SDS011;14240;51.064;16.612;2024-01-16T13:18:20;15.43;;;5.30;;
26598;SDS011;14240;51.064;16.612;2024-01-16T13:20:50;9.07;;;3.78;;
26598;SDS011;14240;51.064;16.612;2024-01-16T13:23:16;8.85;;;4.20;;
26598;SDS011;14240;51.064;16.612;2024-01-16T13:25:43;24.73;;;11.68;;
26598;SDS011;14240;51.064;16.612;2024-01-16T13:28:13;13.18;;;6.20;;
26598;SDS011;14240;51.064;16.612;2024-01-16T13:30:39;12.73;;;7.38;;
26598;SDS011;14240;51.064;16.612;2024-01-16T13:33:06;8.65;;;5.50;;
26598;SDS011;14240;51.064;16.612;2024-01-16T13:35:33;12.85;;;7.03;;
26598;SDS011;14240;51.064;16.612;2024-01-16T13:38:07;7.15;;;4.78;;
26598;SDS011;14240;51.064;16.612;2024-01-16T13:40:33;9.48;;;5.03;;
26598;SDS011;14240;51.064;16.612;2024-01-16T13:43:01;9.07;;;4.63;;
26598;SDS011;14240;51.064;16.612;2024-01-16T13:45:27;9.95;;;5.53;;
26598;SDS011;14240;51.064;16.612;2024-01-16T13:47:53;10.75;;;5.25;;
26598;SDS011;14240;51.064;16.612;2024-01-16T13:50:19;7.35;;;3.95;;
26598;SDS011;14240;51.064;16.612;2024-01-16T13:52:45;7.97;;;3.08;;
26598;SDS011;14240;51.064;16.612;2024-01-16T13:55:11;6.30;;;3.63;;
26598;SDS011;14240;51.064;16.612;2024-01-16T13:57:37;5.78;;;2.72;;
26598;SDS011;14240;51.064;16.612;2024-01-16T14:00:03;5.10;;;2.72;;
26598;SDS011;14240;51.064;16.612;2024-01-16T14:02:38;5.32;;;3.17;;
26598;SDS011;14240;51.064;16.612;2024-01-16T14:05:17;6.53;;;4.05;;
26598;SDS011;14240;51.064;16.612;2024-01-16T14:07:44;12.32;;;6.35;;
26598;SDS011;14240;51.064;16.612;2024-01-16T14:10:12;17.90;;;9.88;;
26598;SDS011;14240;51.064;16.612;2024-01-16T14:12:39;12.15;;;6.18;;
26598;SDS011;14240;51.064;16.612;2024-01-16T14:15:07;10.05;;;5.35;;
26598;SDS011;14240;51.064;16.612;2024-01-16T14:17:41;8.98;;;6.10;;
26598;SDS011;14240;51.064;16.612;2024-01-16T14:20:14;12.25;;;8.20;;
26598;SDS011;14240;51.064;16.612;2024-01-16T14:22:41;17.67;;;10.27;;
26598;SDS011;14240;51.064;16.612;2024-01-16T14:25:12;12.73;;;7.18;;
26598;SDS011;14240;51.064;16.612;2024-01-16T14:27:43;13.55;;;7.28;;
26598;SDS011;14240;51.064;16.612;2024-01-16T14:30:11;12.38;;;7.68;;
26598;SDS011;14240;51.064;16.612;2024-01-16T14:32:44;16.88;;;9.23;;
26598;SDS011;14240;51.064;16.612;2024-01-16T14:35:11;21.02;;;10.35;;
26598;SDS011;14240;51.064;16.612;2024-01-16T14:37:39;26.63;;;11.65;;
26598;SDS011;14240;51.064;16.612;2024-01-16T14:40:06;25.42;;;10.57;;
26598;SDS011;14240;51.064;16.612;2024-01-16T14:42:41;66.78;;;25.98;;
26598;SDS011;14240;51.064;16.612;2024-01-16T14:45:12;28.92;;;15.43;;
26598;SDS011;14240;51.064;16.612;2024-01-16T14:47:39;53.38;;;20.75;;
26598;SDS011;14240;51.064;16.612;2024-01-16T14:50:13;63.70;;;23.05;;
26598;SDS011;14240;51.064;16.612;2024-01-16T14:55:07;31.17;;;12.20;;